createdAt,value
2023-05-06T00:01:40.681Z,7.60
2023-05-06T00:04:44.245Z,7.60
2023-05-06T00:07:47.540Z,7.60
2023-05-06T00:10:50.708Z,7.60
2023-05-06T00:13:55.612Z,7.50
2023-05-06T00:16:58.963Z,7.50
2023-05-06T00:20:02.114Z,7.40
2023-05-06T00:23:05.299Z,7.30
2023-05-06T00:26:08.655Z,7.30
2023-05-06T00:29:13.250Z,7.20
2023-05-06T00:32:16.459Z,7.20
2023-05-06T00:35:19.754Z,7.20
2023-05-06T00:38:23.281Z,7.10
2023-05-06T00:41:26.552Z,7.10
2023-05-06T00:44:31.803Z,7.10
2023-05-06T00:47:35.120Z,7.10
2023-05-06T00:50:40.073Z,7.10
2023-05-06T00:53:43.243Z,7.20
2023-05-06T00:56:46.476Z,7.20
2023-05-06T00:59:51.089Z,7.20
2023-05-06T01:02:54.665Z,7.20
2023-05-06T01:06:12.440Z,7.20
2023-05-06T01:09:20.957Z,7.10
2023-05-06T01:12:31.681Z,7.10
2023-05-06T01:15:40.792Z,7.20
2023-05-06T01:18:45.798Z,7.20
2023-05-06T01:21:55.666Z,7.30
2023-05-06T01:25:01.632Z,7.30
2023-05-06T01:28:04.845Z,7.40
2023-05-06T01:31:14.380Z,7.40
2023-05-06T01:34:29.136Z,7.40
2023-05-06T01:37:39.855Z,7.40
2023-05-06T01:40:47.586Z,7.40
2023-05-06T01:43:51.415Z,7.40
2023-05-06T01:46:56.098Z,7.50
2023-05-06T01:50:00.324Z,7.40
2023-05-06T01:53:04.555Z,7.40
2023-05-06T01:56:10.060Z,7.40
2023-05-06T01:59:14.485Z,7.30
2023-05-06T02:05:36.144Z,7.40
2023-05-06T02:08:41.187Z,7.30
2023-05-06T02:11:47.852Z,7.30
2023-05-06T02:14:51.308Z,7.30
2023-05-06T02:17:54.542Z,7.30
2023-05-06T02:20:59.259Z,7.30
2023-05-06T02:24:02.532Z,7.20
2023-05-06T02:27:06.352Z,7.10
2023-05-06T02:30:10.087Z,7.10
2023-05-06T02:33:13.284Z,7.10
2023-05-06T02:36:17.879Z,7.00
2023-05-06T02:39:21.056Z,7.00
2023-05-06T02:42:24.273Z,6.90
2023-05-06T02:45:27.849Z,6.90
2023-05-06T02:48:31.097Z,6.90
2023-05-06T02:51:36.340Z,6.90
2023-05-06T02:54:39.489Z,6.80
2023-05-06T02:57:42.745Z,6.70
2023-05-06T03:00:46.393Z,6.70
2023-05-06T03:03:49.728Z,6.70
2023-05-06T03:06:54.445Z,6.70
2023-05-06T03:09:57.860Z,6.60
2023-05-06T03:13:02.151Z,6.60
2023-05-06T03:16:07.566Z,6.60
2023-05-06T03:19:11.420Z,6.60
2023-05-06T03:22:16.759Z,6.60
2023-05-06T03:25:21.873Z,6.50
2023-05-06T03:28:26.245Z,6.60
2023-05-06T03:31:30.376Z,6.60
2023-05-06T03:34:36.318Z,6.60
2023-05-06T03:37:41.420Z,6.60
2023-05-06T03:40:46.033Z,6.70
2023-05-06T03:43:51.157Z,6.70
2023-05-06T03:46:57.406Z,6.70
2023-05-06T03:50:00.780Z,6.70
2023-05-06T03:53:06.930Z,6.70
2023-05-06T03:56:11.990Z,6.70
2023-05-06T03:59:15.409Z,6.80
2023-05-06T04:02:19.505Z,6.80
2023-05-06T04:05:22.971Z,6.80
2023-05-06T04:08:27.708Z,6.80
2023-05-06T04:11:31.656Z,6.90
2023-05-06T04:14:37.309Z,6.80
2023-05-06T04:17:41.212Z,6.90
2023-05-06T04:20:46.676Z,6.90
2023-05-06T04:23:51.473Z,6.90
2023-05-06T04:26:59.510Z,7.00
2023-05-06T04:30:03.303Z,7.00
2023-05-06T04:33:08.907Z,7.00
2023-05-06T04:36:13.417Z,7.20
2023-05-06T04:39:24.457Z,7.30
2023-05-06T04:42:28.105Z,7.40
2023-05-06T04:45:49.342Z,7.50
2023-05-06T04:48:58.287Z,7.60
2023-05-06T04:52:02.016Z,7.70
2023-05-06T04:55:07.674Z,7.90
2023-05-06T04:58:14.570Z,7.90
2023-05-06T05:01:19.337Z,8.00
2023-05-06T05:04:22.798Z,8.10
2023-05-06T05:07:26.489Z,8.20
2023-05-06T05:10:31.487Z,8.50
2023-05-06T05:13:36.288Z,8.60
2023-05-06T05:16:41.812Z,8.80
2023-05-06T05:19:45.854Z,8.80
2023-05-06T05:22:50.695Z,8.80
2023-05-06T05:25:55.904Z,8.80
2023-05-06T05:28:59.636Z,8.90
2023-05-06T05:32:04.708Z,8.90
2023-05-06T05:35:10.382Z,8.90
2023-05-06T05:38:15.250Z,8.80
2023-05-06T05:41:20.824Z,8.90
2023-05-06T05:44:24.448Z,8.70
2023-05-06T05:47:28.582Z,9.00
2023-05-06T05:50:32.617Z,9.20
2023-05-06T05:53:37.172Z,8.90
2023-05-06T05:56:43.197Z,9.10
2023-05-06T05:59:47.412Z,9.00
2023-05-06T06:02:50.775Z,9.00
2023-05-06T06:05:57.019Z,8.90
2023-05-06T06:09:02.029Z,9.00
2023-05-06T06:12:07.319Z,9.10
2023-05-06T06:15:13.697Z,9.40
2023-05-06T06:18:18.207Z,9.70
2023-05-06T06:21:21.472Z,9.70
2023-05-06T06:24:25.665Z,9.60
2023-05-06T06:27:30.849Z,10.00
2023-05-06T06:30:34.170Z,10.20
2023-05-06T06:33:37.748Z,10.40
2023-05-06T06:36:45.083Z,10.50
2023-05-06T06:39:48.306Z,10.70
2023-05-06T06:42:52.903Z,10.60
2023-05-06T06:46:16.989Z,10.70
2023-05-06T06:49:20.385Z,11.00
2023-05-06T06:52:23.573Z,11.20
2023-05-06T06:55:26.921Z,11.00
2023-05-06T06:58:34.311Z,11.10
2023-05-06T07:01:37.825Z,11.40
2023-05-06T07:04:41.353Z,11.60
2023-05-06T07:07:44.633Z,11.60
2023-05-06T07:10:47.986Z,11.80
2023-05-06T07:13:52.757Z,11.70
2023-05-06T07:16:57.095Z,12.00
2023-05-06T07:20:00.628Z,11.90
2023-05-06T07:23:04.181Z,12.00
2023-05-06T07:26:07.593Z,12.10
2023-05-06T07:29:12.321Z,12.10
2023-05-06T07:32:16.080Z,12.40
2023-05-06T07:35:19.487Z,12.50
2023-05-06T07:38:23.078Z,12.50
2023-05-06T07:41:26.372Z,12.70
2023-05-06T07:44:31.023Z,12.60
2023-05-06T07:47:36.540Z,12.90
2023-05-06T07:50:39.981Z,13.10
2023-05-06T07:53:43.177Z,13.20
2023-05-06T07:56:46.412Z,13.20
2023-05-06T07:59:52.841Z,13.30
2023-05-06T08:02:56.218Z,13.70
2023-05-06T08:06:00.217Z,13.40
2023-05-06T08:09:03.680Z,13.50
2023-05-06T08:12:07.589Z,13.40
2023-05-06T08:15:13.233Z,13.50
2023-05-06T08:18:22.437Z,13.50
2023-05-06T08:21:27.877Z,13.50
2023-05-06T08:24:31.181Z,13.50
2023-05-06T08:27:34.878Z,13.50
2023-05-06T08:30:39.428Z,14.00
2023-05-06T08:33:42.702Z,14.30
2023-05-06T08:36:45.970Z,14.50
2023-05-06T08:39:49.172Z,14.70
2023-05-06T08:42:52.822Z,14.60
2023-05-06T08:45:57.596Z,14.80
2023-05-06T08:49:01.038Z,14.70
2023-05-06T08:52:06.841Z,14.70
2023-05-06T08:55:11.549Z,15.10
2023-05-06T08:58:19.185Z,14.80
2023-05-06T09:01:27.729Z,14.70
2023-05-06T09:04:31.491Z,14.90
2023-05-06T09:07:37.923Z,15.10
2023-05-06T09:10:44.917Z,15.00
2023-05-06T09:13:48.251Z,14.80
2023-05-06T09:16:53.733Z,15.00
2023-05-06T09:19:58.192Z,15.20
2023-05-06T09:23:02.147Z,15.00
2023-05-06T09:26:06.139Z,14.60
2023-05-06T09:29:09.934Z,14.90
2023-05-06T09:32:16.764Z,15.00
2023-05-06T09:35:20.037Z,15.30
2023-05-06T09:38:23.243Z,15.10
2023-05-06T09:41:26.962Z,15.20
2023-05-06T09:44:31.022Z,15.30
2023-05-06T09:47:36.499Z,15.00
2023-05-06T09:50:40.536Z,15.10
2023-05-06T09:53:46.364Z,15.00
2023-05-06T09:56:50.121Z,15.40
2023-05-06T09:59:55.191Z,15.40
2023-05-06T10:03:00.797Z,15.50
2023-05-06T10:06:07.130Z,14.90
2023-05-06T10:09:11.544Z,14.30
2023-05-06T10:12:16.001Z,14.30
2023-05-06T10:15:19.336Z,14.10
2023-05-06T10:18:24.742Z,13.70
2023-05-06T10:21:32.542Z,13.80
2023-05-06T10:24:49.177Z,14.00
2023-05-06T10:27:53.002Z,14.00
2023-05-06T10:30:59.409Z,13.80
2023-05-06T10:34:07.482Z,13.60
2023-05-06T10:37:12.733Z,13.50
2023-05-06T10:40:16.666Z,13.30
2023-05-06T10:43:29.227Z,13.10
2023-05-06T10:46:32.776Z,13.00
2023-05-06T10:49:37.346Z,13.10
2023-05-06T10:52:47.271Z,13.00
2023-05-06T10:56:10.011Z,13.00
2023-05-06T10:59:13.965Z,13.00
2023-05-06T11:02:20.105Z,13.00
2023-05-06T11:05:25.762Z,12.90
2023-05-06T11:08:29.124Z,13.00
2023-05-06T11:12:02.932Z,13.10
2023-05-06T11:15:27.245Z,13.40
2023-05-06T11:18:46.056Z,13.00
2023-05-06T11:21:50.947Z,12.80
2023-05-06T11:24:54.231Z,12.80
2023-05-06T11:27:57.640Z,12.90
2023-05-06T11:31:01.758Z,12.70
2023-05-06T11:34:08.774Z,12.80
2023-05-06T11:37:13.356Z,12.90
2023-05-06T11:40:16.807Z,13.10
2023-05-06T11:43:20.037Z,13.10
2023-05-06T11:46:25.371Z,13.00
2023-05-06T11:49:28.783Z,13.00
2023-05-06T11:52:33.398Z,13.00
2023-05-06T11:55:36.986Z,13.10
2023-05-06T11:58:40.145Z,13.00
2023-05-06T12:01:44.490Z,13.00
2023-05-06T12:04:50.038Z,12.90
2023-05-06T12:07:55.159Z,13.00
2023-05-06T12:11:01.732Z,13.00
2023-05-06T12:14:07.060Z,13.20
2023-05-06T12:17:10.521Z,13.10
2023-05-06T12:20:14.303Z,13.10
2023-05-06T12:23:19.984Z,13.10
2023-05-06T12:26:23.342Z,13.10
2023-05-06T12:29:26.765Z,13.00
2023-05-06T12:32:29.999Z,12.90
2023-05-06T12:35:33.795Z,13.00
2023-05-06T12:38:38.494Z,13.00
2023-05-06T12:41:43.967Z,12.90
2023-05-06T12:44:47.433Z,12.90
2023-05-06T12:47:54.726Z,13.20
2023-05-06T12:50:57.989Z,12.80
2023-05-06T12:54:04.694Z,13.00
2023-05-06T12:57:07.935Z,12.90
2023-05-06T13:00:12.851Z,13.20
2023-05-06T13:03:16.901Z,13.30
2023-05-06T13:06:20.450Z,13.40
2023-05-06T13:09:25.690Z,13.40
2023-05-06T13:12:29.118Z,13.60
2023-05-06T13:15:32.392Z,13.20
2023-05-06T13:18:36.024Z,13.20
2023-05-06T13:21:39.990Z,13.30
2023-05-06T13:24:44.595Z,13.20
2023-05-06T13:27:48.206Z,13.10
2023-05-06T13:30:51.544Z,12.90
2023-05-06T13:33:55.234Z,12.90
2023-05-06T13:36:59.504Z,12.70
2023-05-06T13:40:05.222Z,12.60
2023-05-06T13:43:09.210Z,12.60
2023-05-06T13:46:12.780Z,12.60
2023-05-06T13:49:16.840Z,12.60
2023-05-06T13:52:22.373Z,12.70
2023-05-06T13:55:29.056Z,12.70
2023-05-06T13:58:34.471Z,12.60
2023-05-06T14:01:39.833Z,12.60
2023-05-06T14:04:45.228Z,12.40
2023-05-06T14:07:50.015Z,12.20
2023-05-06T14:10:56.311Z,12.10
2023-05-06T14:14:00.955Z,12.00
2023-05-06T14:17:05.493Z,12.10
2023-05-06T14:20:10.819Z,12.00
2023-05-06T14:23:16.541Z,11.90
2023-05-06T14:26:22.737Z,11.80
2023-05-06T14:29:26.839Z,11.70
2023-05-06T14:32:31.532Z,11.40
2023-05-06T14:35:36.261Z,11.20
2023-05-06T14:38:39.728Z,11.10
2023-05-06T14:41:44.428Z,10.90
2023-05-06T14:44:50.520Z,10.90
2023-05-06T14:47:53.889Z,10.90
2023-05-06T14:50:57.572Z,9.80
2023-05-06T14:54:00.903Z,10.80
2023-05-06T14:57:06.437Z,10.80
2023-05-06T15:00:14.830Z,10.70
2023-05-06T15:03:18.440Z,10.70
2023-05-06T15:06:21.964Z,10.70
2023-05-06T15:09:25.611Z,10.60
2023-05-06T15:12:30.416Z,10.50
2023-05-06T15:15:33.645Z,10.30
2023-05-06T15:18:38.119Z,10.10
2023-05-06T15:21:41.448Z,10.10
2023-05-06T15:24:45.874Z,10.00
2023-05-06T15:27:50.716Z,10.00
2023-05-06T15:30:54.205Z,10.00
2023-05-06T15:34:00.242Z,10.00
2023-05-06T15:37:04.228Z,10.00
2023-05-06T15:40:11.366Z,10.00
2023-05-06T15:43:22.718Z,9.90
2023-05-06T15:46:27.633Z,9.80
2023-05-06T15:49:52.058Z,9.80
2023-05-06T15:52:56.646Z,9.60
2023-05-06T15:56:13.247Z,9.50
2023-05-06T15:59:22.327Z,9.50
2023-05-06T16:02:27.508Z,9.30
2023-05-06T16:05:31.608Z,9.20
2023-05-06T16:08:36.494Z,9.10
2023-05-06T16:11:40.174Z,9.10
2023-05-06T16:14:45.335Z,9.00
2023-05-06T16:17:48.735Z,8.90
2023-05-06T16:20:52.279Z,8.80
2023-05-06T16:23:55.678Z,8.80
2023-05-06T16:26:59.506Z,8.70
2023-05-06T16:30:04.712Z,8.70
2023-05-06T16:33:08.759Z,8.70
2023-05-06T16:36:12.801Z,8.70
2023-05-06T16:39:16.208Z,8.70
2023-05-06T16:42:19.427Z,8.60
2023-05-06T16:45:24.343Z,8.60
2023-05-06T16:48:27.799Z,8.60
2023-05-06T16:51:32.459Z,8.50
2023-05-06T16:54:37.060Z,8.50
2023-05-06T16:57:40.839Z,8.40
2023-05-06T17:00:47.704Z,8.30
2023-05-06T17:03:51.320Z,8.30
2023-05-06T17:06:56.097Z,8.30
2023-05-06T17:09:59.631Z,8.20
2023-05-06T17:13:04.391Z,8.30
2023-05-06T17:16:10.058Z,8.30
2023-05-06T17:19:13.789Z,8.20
2023-05-06T17:22:17.163Z,8.10
2023-05-06T17:25:21.228Z,8.00
2023-05-06T17:28:25.096Z,7.90
2023-05-06T17:31:29.852Z,7.90
2023-05-06T17:34:35.381Z,7.90
2023-05-06T17:37:40.920Z,7.90
2023-05-06T17:40:44.890Z,7.80
2023-05-06T17:43:48.772Z,7.70
2023-05-06T17:46:53.497Z,7.70
2023-05-06T17:49:57.434Z,7.70
2023-05-06T17:53:00.914Z,7.70
2023-05-06T17:56:04.277Z,7.70
2023-05-06T17:59:07.566Z,7.70
2023-05-06T18:02:15.735Z,7.60
2023-05-06T18:05:19.940Z,7.60
2023-05-06T18:08:23.984Z,7.60
2023-05-06T18:11:27.662Z,7.60
2023-05-06T18:14:31.118Z,7.50
2023-05-06T18:17:37.133Z,7.60
2023-05-06T18:20:42.084Z,7.50
2023-05-06T18:23:46.985Z,7.50
2023-05-06T18:26:51.459Z,7.40
2023-05-06T18:29:54.764Z,7.40
2023-05-06T18:32:59.802Z,7.40
2023-05-06T18:36:03.253Z,7.40
2023-05-06T18:39:07.544Z,7.40
2023-05-06T18:42:11.370Z,7.30
2023-05-06T18:45:15.967Z,7.30
2023-05-06T18:48:21.442Z,7.30
2023-05-06T18:51:25.570Z,7.30
2023-05-06T18:54:29.579Z,7.20
2023-05-06T18:57:33.934Z,7.20
2023-05-06T19:00:37.309Z,7.20
2023-05-06T19:03:43.992Z,7.20
2023-05-06T19:06:47.378Z,7.20
2023-05-06T19:09:50.900Z,7.20
2023-05-06T19:12:54.464Z,7.30
2023-05-06T19:15:58.128Z,7.20
2023-05-06T19:19:06.917Z,7.20
2023-05-06T19:22:11.362Z,7.10
2023-05-06T19:25:14.980Z,7.10
2023-05-06T19:28:21.122Z,7.10
2023-05-06T19:31:24.948Z,7.10
2023-05-06T19:34:31.479Z,7.10
2023-05-06T19:37:36.285Z,7.10
2023-05-06T19:40:40.349Z,7.00
2023-05-06T19:43:45.113Z,6.70
2023-05-06T19:46:49.506Z,7.00
2023-05-06T19:49:54.560Z,7.00
2023-05-06T19:52:57.971Z,6.90
2023-05-06T19:56:10.891Z,6.90
2023-05-06T19:59:14.349Z,6.80
2023-05-06T20:02:18.148Z,6.80
2023-05-06T20:05:24.138Z,6.80
2023-05-06T20:08:28.434Z,6.80
2023-05-06T20:11:32.290Z,6.70
2023-05-06T20:14:36.087Z,6.70
2023-05-06T20:17:39.657Z,6.70
2023-05-06T20:20:45.312Z,6.70
2023-05-06T20:23:48.897Z,6.70
2023-05-06T20:26:53.092Z,6.70
2023-05-06T20:29:56.812Z,6.70
2023-05-06T20:33:00.530Z,6.70
2023-05-06T20:36:06.791Z,6.70
2023-05-06T20:39:12.009Z,6.70
2023-05-06T20:42:15.534Z,6.70
2023-05-06T20:45:18.790Z,6.70
2023-05-06T20:48:22.506Z,6.60
2023-05-06T20:51:28.393Z,6.60
2023-05-06T20:54:32.374Z,6.50
2023-05-06T20:57:36.023Z,6.60
2023-05-06T21:00:39.511Z,6.50
2023-05-06T21:03:43.574Z,6.50
2023-05-06T21:06:48.637Z,6.50
2023-05-06T21:09:51.999Z,6.50
2023-05-06T21:12:55.334Z,6.50
2023-05-06T21:15:58.952Z,6.40
2023-05-06T21:19:02.358Z,6.40
2023-05-06T21:22:10.152Z,6.40
2023-05-06T21:25:14.234Z,6.40
2023-05-06T21:28:17.776Z,6.30
2023-05-06T21:31:22.314Z,6.30
2023-05-06T21:34:27.614Z,6.40
2023-05-06T21:37:32.816Z,6.30
2023-05-06T21:40:36.170Z,6.20
2023-05-06T21:43:39.470Z,6.20
2023-05-06T21:46:43.035Z,6.20
2023-05-06T21:49:47.155Z,6.10
2023-05-06T21:52:51.972Z,6.10
2023-05-06T21:55:57.453Z,6.00
2023-05-06T21:59:00.806Z,5.90
2023-05-06T22:02:04.409Z,5.90
2023-05-06T22:05:08.782Z,5.90
2023-05-06T22:08:13.797Z,5.90
2023-05-06T22:11:17.281Z,5.90
2023-05-06T22:14:24.286Z,5.70
2023-05-06T22:17:34.782Z,5.70
2023-05-06T22:20:38.450Z,5.70
2023-05-06T22:23:43.213Z,5.70
2023-05-06T22:26:46.569Z,5.60
2023-05-06T22:29:49.823Z,5.60
2023-05-06T22:32:53.073Z,5.50
2023-05-06T22:35:56.455Z,5.50
2023-05-06T22:39:01.257Z,5.50
2023-05-06T22:42:04.904Z,5.50
2023-05-06T22:45:10.553Z,5.50
2023-05-06T22:48:14.066Z,5.40
2023-05-06T22:51:17.308Z,5.40
2023-05-06T22:54:22.236Z,5.40
2023-05-06T22:57:25.684Z,5.40
2023-05-06T23:00:29.030Z,5.40
2023-05-06T23:03:32.424Z,5.40
2023-05-06T23:06:35.885Z,5.30
2023-05-06T23:09:40.706Z,5.30
2023-05-06T23:12:43.915Z,5.30
2023-05-06T23:15:47.544Z,5.30
2023-05-06T23:18:50.785Z,5.30
2023-05-06T23:21:54.033Z,5.30
2023-05-06T23:24:59.328Z,5.30
2023-05-06T23:28:02.584Z,5.30
2023-05-06T23:31:05.923Z,5.30
2023-05-06T23:34:09.163Z,5.30
2023-05-06T23:37:12.847Z,5.20
2023-05-06T23:40:17.501Z,5.20
2023-05-06T23:43:21.092Z,5.20
2023-05-06T23:46:24.469Z,5.10
2023-05-06T23:49:27.777Z,5.10
2023-05-06T23:52:31.415Z,5.10
2023-05-06T23:55:36.087Z,5.10
2023-05-06T23:58:39.481Z,5.10
